createdAt,value
2019-04-21T00:02:03.864Z,13.20
2019-04-21T00:04:46.540Z,11.30
2019-04-21T00:07:29.701Z,10.20
2019-04-21T00:10:06.397Z,10.40
2019-04-21T00:12:35.572Z,10.23
2019-04-21T00:15:05.027Z,9.10
2019-04-21T00:17:24.875Z,9.83
2019-04-21T00:20:09.031Z,9.27
2019-04-21T00:22:41.335Z,9.23
2019-04-21T00:25:20.730Z,9.57
2019-04-21T00:27:55.216Z,10.57
2019-04-21T00:30:30.336Z,9.77
2019-04-21T00:32:54.005Z,9.33
2019-04-21T00:35:21.066Z,9.13
2019-04-21T00:38:17.099Z,9.40
2019-04-21T00:40:53.882Z,8.77
2019-04-21T00:43:19.716Z,8.40
2019-04-21T00:45:52.128Z,7.80
2019-04-21T00:48:36.543Z,8.17
2019-04-21T00:51:25.161Z,7.97
2019-04-21T00:53:51.882Z,8.63
2019-04-21T00:56:16.716Z,8.97
2019-04-21T00:58:48.030Z,9.57
2019-04-21T01:01:22.327Z,9.43
2019-04-21T01:03:57.704Z,9.53
2019-04-21T01:06:28.663Z,9.90
2019-04-21T01:08:59.552Z,9.57
2019-04-21T01:11:34.192Z,9.57
2019-04-21T01:14:12.023Z,9.43
2019-04-21T01:16:45.821Z,9.13
2019-04-21T01:19:16.653Z,9.23
2019-04-21T01:21:31.063Z,9.17
2019-04-21T01:24:18.603Z,9.50
2019-04-21T01:26:51.010Z,9.40
2019-04-21T01:29:37.511Z,9.23
2019-04-21T01:32:13.477Z,9.27
2019-04-21T01:34:39.208Z,9.57
2019-04-21T01:37:03.912Z,9.70
2019-04-21T01:39:51.485Z,9.60
2019-04-21T01:42:21.424Z,8.97
2019-04-21T01:44:54.394Z,8.03
2019-04-21T01:47:23.167Z,8.50
2019-04-21T01:49:50.077Z,7.20
2019-04-21T01:55:13.826Z,6.40
2019-04-21T01:57:45.150Z,5.87
2019-04-21T02:00:13.294Z,5.90
2019-04-21T02:02:59.237Z,5.70
2019-04-21T02:05:40.856Z,6.00
2019-04-21T02:08:01.176Z,5.87
2019-04-21T02:10:44.479Z,6.07
2019-04-21T02:13:10.257Z,6.27
2019-04-21T02:15:46.462Z,6.40
2019-04-21T02:18:18.566Z,6.53
2019-04-21T02:20:41.369Z,6.47
2019-04-21T02:25:57.546Z,6.23
2019-04-21T02:28:37.885Z,5.47
2019-04-21T02:33:45.903Z,5.93
2019-04-21T02:36:33.237Z,6.60
2019-04-21T02:38:56.318Z,6.10
2019-04-21T02:41:22.792Z,6.23
2019-04-21T02:44:00.659Z,6.30
2019-04-21T02:46:31.312Z,6.27
2019-04-21T02:51:36.857Z,5.80
2019-04-21T02:54:40.640Z,6.17
2019-04-21T03:02:04.468Z,6.97
2019-04-21T03:04:56.821Z,6.97
2019-04-21T03:18:26.520Z,6.90
2019-04-21T03:23:36.345Z,7.23
2019-04-21T03:26:12.437Z,6.83
2019-04-21T03:28:37.070Z,7.37
2019-04-21T03:41:31.671Z,6.57
2019-04-21T03:44:12.344Z,6.97
2019-04-21T03:49:14.857Z,7.07
2019-04-21T03:56:59.142Z,6.90
2019-04-21T03:59:19.962Z,6.50
2019-04-21T04:02:03.537Z,6.60
2019-04-21T04:04:44.105Z,6.50
2019-04-21T04:07:44.111Z,6.30
2019-04-21T04:10:07.736Z,6.30
2019-04-21T04:12:36.528Z,6.37
2019-04-21T04:15:12.239Z,6.13
2019-04-21T04:17:40.786Z,6.37
2019-04-21T04:20:16.405Z,6.20
2019-04-21T04:25:25.233Z,5.70
2019-04-21T04:27:59.464Z,5.40
2019-04-21T04:30:23.551Z,5.50
2019-04-21T04:32:46.556Z,5.17
2019-04-21T04:35:40.484Z,5.63
2019-04-21T04:37:55.898Z,5.40
2019-04-21T04:50:49.321Z,5.73
2019-04-21T04:53:20.347Z,5.70
2019-04-21T04:58:38.923Z,6.47
2019-04-21T05:03:45.678Z,6.13
2019-04-21T05:06:53.360Z,6.63
2019-04-21T05:09:11.343Z,6.67
2019-04-21T05:11:46.799Z,6.37
2019-04-21T05:19:34.966Z,6.83
2019-04-21T05:21:45.629Z,6.47
2019-04-21T05:24:16.659Z,7.07
2019-04-21T05:26:51.598Z,6.57
2019-04-21T05:29:20.793Z,6.30
2019-04-21T05:32:11.820Z,6.07
2019-04-21T05:34:37.394Z,6.50
2019-04-21T05:37:24.692Z,6.83
2019-04-21T05:39:55.899Z,5.50
2019-04-21T05:42:30.296Z,5.97
2019-04-21T05:45:26.817Z,6.03
2019-04-21T05:48:11.686Z,5.57
2019-04-21T05:50:30.561Z,5.17
2019-04-21T05:53:00.837Z,6.00
2019-04-21T05:55:46.001Z,6.17
2019-04-21T05:58:09.306Z,5.57
2019-04-21T06:01:09.280Z,5.60
2019-04-21T06:03:30.700Z,6.13
2019-04-21T06:08:30.844Z,5.63
2019-04-21T06:11:07.308Z,4.87
2019-04-21T06:13:43.776Z,4.77
2019-04-21T06:16:07.327Z,5.70
2019-04-21T06:18:52.980Z,5.10
2019-04-21T06:21:15.903Z,5.47
2019-04-21T06:23:49.652Z,4.67
2019-04-21T06:26:50.385Z,4.77
2019-04-21T06:28:56.885Z,5.00
2019-04-21T06:32:09.090Z,5.10
2019-04-21T06:34:11.378Z,5.20
2019-04-21T06:36:42.644Z,5.43
2019-04-21T06:39:15.637Z,4.90
2019-04-21T06:41:49.044Z,4.90
2019-04-21T06:44:28.944Z,4.80
2019-04-21T06:46:54.290Z,4.50
2019-04-21T06:49:26.213Z,4.73
2019-04-21T06:52:19.397Z,4.67
2019-04-21T06:54:45.431Z,5.10
2019-04-21T06:57:15.207Z,5.00
2019-04-21T06:59:40.249Z,4.53
2019-04-21T07:02:30.654Z,5.13
2019-04-21T07:04:51.837Z,4.53
2019-04-21T07:07:21.722Z,4.67
2019-04-21T07:09:57.011Z,4.73
2019-04-21T07:12:26.176Z,4.20
2019-04-21T07:14:59.278Z,4.80
2019-04-21T07:17:45.694Z,4.50
2019-04-21T07:20:06.923Z,4.07
2019-04-21T07:22:36.853Z,4.57
2019-04-21T07:25:10.545Z,3.93
2019-04-21T07:27:58.096Z,4.63
2019-04-21T07:30:21.111Z,3.53
2019-04-21T07:35:20.812Z,4.03
2019-04-21T07:37:53.448Z,4.13
2019-04-21T07:40:22.321Z,3.70
2019-04-21T07:42:54.169Z,4.33
2019-04-21T07:45:27.793Z,4.23
2019-04-21T07:48:16.215Z,3.70
2019-04-21T07:51:07.546Z,3.60
2019-04-21T07:53:49.878Z,3.60
2019-04-21T07:56:00.314Z,3.77
2019-04-21T07:58:53.570Z,3.33
2019-04-21T08:03:57.049Z,3.30
2019-04-21T08:06:26.816Z,3.70
2019-04-21T08:08:53.486Z,3.57
2019-04-21T08:11:28.301Z,3.10
2019-04-21T08:13:57.768Z,3.70
2019-04-21T08:16:30.230Z,3.70
2019-04-21T08:19:07.175Z,3.60
2019-04-21T08:21:47.772Z,3.80
2019-04-21T08:24:12.905Z,3.33
2019-04-21T08:26:46.936Z,3.43
2019-04-21T08:29:25.631Z,3.40
2019-04-21T08:31:56.075Z,3.43
2019-04-21T08:34:28.392Z,3.27
2019-04-21T08:36:52.769Z,3.57
2019-04-21T08:39:28.870Z,3.37
2019-04-21T08:42:03.342Z,3.60
2019-04-21T08:47:12.859Z,3.20
2019-04-21T08:49:42.825Z,3.47
2019-04-21T08:54:47.074Z,3.57
2019-04-21T08:57:32.179Z,3.40
2019-04-21T09:00:05.380Z,4.03
2019-04-21T09:02:40.452Z,3.63
2019-04-21T09:05:06.016Z,3.17
2019-04-21T09:07:44.676Z,3.73
2019-04-21T09:10:09.275Z,4.20
2019-04-21T09:12:48.033Z,3.47
2019-04-21T09:15:18.942Z,3.70
2019-04-21T09:17:44.799Z,3.70
2019-04-21T09:20:26.567Z,3.63
2019-04-21T09:23:00.807Z,3.33
2019-04-21T09:25:40.594Z,3.43
2019-04-21T09:28:05.332Z,3.53
2019-04-21T09:30:20.208Z,3.50
2019-04-21T09:32:53.461Z,3.50
2019-04-21T09:35:24.090Z,3.13
2019-04-21T09:38:03.943Z,3.60
2019-04-21T09:40:35.989Z,3.63
2019-04-21T09:43:04.741Z,4.97
2019-04-21T09:45:32.977Z,2.73
2019-04-21T09:48:11.525Z,3.47
2019-04-21T09:50:38.375Z,3.20
2019-04-21T09:53:18.138Z,3.07
2019-04-21T09:55:48.761Z,2.97
2019-04-21T09:58:24.171Z,3.17
2019-04-21T10:01:01.136Z,3.20
2019-04-21T10:03:21.249Z,3.13
2019-04-21T10:05:54.184Z,2.90
2019-04-21T10:08:25.282Z,3.20
2019-04-21T10:10:56.970Z,3.30
2019-04-21T10:13:29.619Z,3.27
2019-04-21T10:16:20.239Z,3.10
2019-04-21T10:18:50.683Z,3.10
2019-04-21T10:21:22.533Z,3.33
2019-04-21T10:23:54.279Z,3.10
2019-04-21T10:26:26.387Z,3.00
2019-04-21T10:29:05.562Z,3.10
2019-04-21T10:31:32.516Z,3.00
2019-04-21T10:34:03.231Z,3.00
2019-04-21T10:36:35.031Z,3.00
2019-04-21T10:39:07.836Z,3.57
2019-04-21T10:41:39.299Z,3.37
2019-04-21T10:46:48.478Z,3.10
2019-04-21T10:49:19.022Z,3.90
2019-04-21T10:51:50.752Z,3.47
2019-04-21T10:54:21.888Z,3.43
2019-04-21T10:56:54.694Z,3.00
2019-04-21T10:59:25.223Z,2.93
2019-04-21T11:01:56.851Z,3.40
2019-04-21T11:04:33.653Z,3.13
2019-04-21T11:07:06.698Z,3.07
2019-04-21T11:09:36.104Z,2.93
2019-04-21T11:12:08.152Z,2.97
2019-04-21T11:14:38.977Z,2.60
2019-04-21T11:17:10.197Z,2.70
2019-04-21T11:19:41.132Z,3.00
2019-04-21T11:22:12.662Z,3.20
2019-04-21T11:24:43.396Z,2.90
2019-04-21T11:27:14.974Z,2.90
2019-04-21T11:29:45.605Z,2.83
2019-04-21T11:32:16.927Z,3.10
2019-04-21T11:34:47.473Z,2.90
2019-04-21T11:37:19.953Z,3.03
2019-04-21T11:39:59.373Z,2.47
2019-04-21T11:42:25.705Z,2.63
2019-04-21T11:44:57.550Z,2.30
2019-04-21T11:47:32.539Z,2.97
2019-04-21T11:50:05.334Z,2.47
2019-04-21T11:52:36.911Z,2.97
2019-04-21T11:55:08.993Z,2.23
2019-04-21T11:57:44.610Z,2.40
2019-04-21T12:00:13.623Z,3.10
2019-04-21T12:02:45.617Z,2.83
2019-04-21T12:05:17.297Z,2.60
2019-04-21T12:07:49.263Z,2.60
2019-04-21T12:10:20.026Z,3.10
2019-04-21T12:12:51.006Z,2.70
2019-04-21T12:15:22.930Z,2.70
2019-04-21T12:17:56.340Z,2.60
2019-04-21T12:20:33.429Z,2.20
2019-04-21T12:23:04.887Z,2.43
2019-04-21T12:25:47.248Z,2.50
2019-04-21T12:28:19.714Z,2.90
2019-04-21T12:30:51.954Z,2.80
2019-04-21T12:33:32.062Z,2.53
2019-04-21T12:36:04.004Z,2.50
2019-04-21T12:38:46.577Z,3.20
2019-04-21T12:41:08.690Z,3.47
2019-04-21T12:43:40.541Z,3.30
2019-04-21T12:46:11.954Z,2.63
2019-04-21T12:48:44.117Z,3.17
2019-04-21T12:51:15.577Z,3.67
2019-04-21T12:53:47.761Z,2.97
2019-04-21T12:56:19.735Z,2.70
2019-04-21T12:58:51.311Z,2.77
2019-04-21T13:01:23.082Z,2.73
2019-04-21T13:03:53.878Z,2.53
2019-04-21T13:06:25.523Z,2.93
2019-04-21T13:09:04.653Z,3.03
2019-04-21T13:11:28.870Z,2.63
2019-04-21T13:13:59.997Z,2.30
2019-04-21T13:16:31.664Z,2.00
2019-04-21T13:19:03.010Z,2.40
2019-04-21T13:21:36.045Z,2.40
2019-04-21T13:24:07.202Z,2.83
2019-04-21T13:26:45.497Z,2.50
2019-04-21T13:29:10.259Z,2.70
2019-04-21T13:31:42.421Z,2.43
2019-04-21T13:34:14.094Z,2.47
2019-04-21T13:36:45.548Z,2.40
2019-04-21T13:39:52.305Z,2.63
2019-04-21T13:42:11.053Z,2.63
2019-04-21T13:44:33.110Z,2.73
2019-04-21T13:47:05.138Z,2.27
2019-04-21T13:49:37.036Z,2.30
2019-04-21T13:52:11.066Z,2.30
2019-04-21T13:54:43.196Z,2.13
2019-04-21T13:57:16.644Z,2.50
2019-04-21T13:59:49.409Z,2.97
2019-04-21T14:02:20.731Z,2.33
2019-04-21T14:04:51.846Z,2.63
2019-04-21T14:07:24.072Z,2.50
2019-04-21T14:10:02.554Z,2.67
2019-04-21T14:12:31.655Z,2.80
2019-04-21T14:15:02.334Z,2.87
2019-04-21T14:17:35.037Z,2.50
2019-04-21T14:20:09.542Z,2.87
2019-04-21T14:22:40.113Z,2.67
2019-04-21T14:25:15.500Z,2.43
2019-04-21T14:27:49.921Z,2.20
2019-04-21T14:30:20.595Z,2.47
2019-04-21T14:32:52.001Z,1.90
2019-04-21T14:35:25.024Z,2.27
2019-04-21T14:37:56.576Z,2.40
2019-04-21T14:40:29.512Z,2.17
2019-04-21T14:43:00.355Z,2.27
2019-04-21T14:45:36.811Z,2.27
2019-04-21T14:48:25.470Z,2.03
2019-04-21T14:51:06.778Z,2.17
2019-04-21T14:53:41.535Z,2.20
2019-04-21T14:56:13.259Z,2.10
2019-04-21T14:58:45.300Z,2.73
2019-04-21T15:01:16.200Z,2.17
2019-04-21T15:03:47.884Z,2.00
2019-04-21T15:06:19.040Z,2.67
2019-04-21T15:08:51.097Z,2.40
2019-04-21T15:11:22.183Z,2.13
2019-04-21T15:14:17.847Z,2.00
2019-04-21T15:16:49.068Z,2.43
2019-04-21T15:19:20.421Z,2.00
2019-04-21T15:21:52.336Z,1.87
2019-04-21T15:24:24.323Z,1.70
2019-04-21T15:26:55.035Z,1.83
2019-04-21T15:29:26.790Z,1.50
2019-04-21T15:31:58.708Z,1.73
2019-04-21T15:34:31.993Z,1.57
2019-04-21T15:37:04.108Z,1.60
2019-04-21T15:39:34.761Z,1.50
2019-04-21T15:42:06.243Z,1.93
2019-04-21T15:44:36.854Z,2.10
2019-04-21T15:47:08.261Z,1.73
2019-04-21T15:50:00.818Z,1.63
2019-04-21T15:52:27.983Z,1.80
2019-04-21T15:55:00.863Z,1.53
2019-04-21T15:57:38.760Z,1.80
2019-04-21T16:00:30.959Z,1.83
2019-04-21T16:03:02.478Z,1.80
2019-04-21T16:05:33.139Z,1.87
2019-04-21T16:08:05.885Z,1.80
2019-04-21T16:10:43.725Z,1.93
2019-04-21T16:13:09.810Z,1.70
2019-04-21T16:15:40.917Z,1.43
2019-04-21T16:18:12.188Z,1.60
2019-04-21T16:20:43.932Z,2.10
2019-04-21T16:23:15.400Z,2.10
2019-04-21T16:25:46.634Z,2.40
2019-04-21T16:28:17.408Z,2.43
2019-04-21T16:30:48.802Z,2.30
2019-04-21T16:33:20.985Z,2.53
2019-04-21T16:35:51.777Z,2.27
2019-04-21T16:38:23.689Z,2.60
2019-04-21T16:40:59.983Z,2.57
2019-04-21T16:43:27.091Z,2.47
2019-04-21T16:45:58.968Z,2.53
2019-04-21T16:48:30.883Z,3.07
2019-04-21T16:51:01.730Z,2.63
2019-04-21T16:53:37.739Z,2.40
2019-04-21T16:56:26.799Z,2.90
2019-04-21T16:58:59.134Z,2.30
2019-04-21T17:01:34.265Z,3.03
2019-04-21T17:04:06.532Z,2.80
2019-04-21T17:06:38.444Z,2.73
2019-04-21T17:09:10.511Z,2.73
2019-04-21T17:11:44.671Z,3.40
2019-04-21T17:14:32.896Z,3.27
2019-04-21T17:17:16.302Z,3.70
2019-04-21T17:19:27.324Z,3.27
2019-04-21T17:21:52.335Z,3.43
2019-04-21T17:24:24.366Z,3.40
2019-04-21T17:26:55.577Z,3.23
2019-04-21T17:29:30.434Z,3.63
2019-04-21T17:32:06.029Z,3.67
2019-04-21T17:34:37.370Z,3.70
2019-04-21T17:37:08.821Z,3.70
2019-04-21T17:39:40.780Z,3.30
2019-04-21T17:42:23.325Z,4.37
2019-04-21T17:44:43.673Z,4.10
2019-04-21T17:47:23.885Z,3.53
2019-04-21T17:49:50.836Z,3.63
2019-04-21T17:52:23.874Z,3.87
2019-04-21T17:55:11.458Z,3.70
2019-04-21T17:57:57.054Z,4.00
2019-04-21T18:00:57.465Z,3.90
2019-04-21T18:03:07.833Z,4.20
2019-04-21T18:05:39.403Z,4.57
2019-04-21T18:08:16.245Z,4.20
2019-04-21T18:10:42.037Z,3.97
2019-04-21T18:13:05.881Z,4.03
2019-04-21T18:15:46.986Z,4.00
2019-04-21T18:18:05.198Z,3.53
2019-04-21T18:20:41.851Z,3.93
2019-04-21T18:23:39.781Z,4.07
2019-04-21T18:26:08.203Z,3.70
2019-04-21T18:28:38.779Z,3.80
2019-04-21T18:31:14.665Z,3.97
2019-04-21T18:33:59.002Z,4.43
2019-04-21T18:36:39.472Z,4.30
2019-04-21T18:39:27.557Z,4.67
2019-04-21T18:42:04.893Z,4.67
2019-04-21T18:44:48.541Z,4.63
2019-04-21T18:47:20.089Z,4.20
2019-04-21T18:49:43.704Z,4.63
2019-04-21T18:52:32.602Z,5.20
2019-04-21T18:55:05.364Z,5.63
2019-04-21T18:57:36.561Z,5.20
2019-04-21T18:59:57.525Z,4.50
2019-04-21T19:02:38.400Z,4.90
2019-04-21T19:05:07.866Z,5.07
2019-04-21T19:07:59.830Z,4.80
2019-04-21T19:15:30.045Z,5.23
2019-04-21T19:20:38.725Z,4.97
2019-04-21T19:23:11.522Z,5.40
2019-04-21T19:25:49.691Z,5.63
2019-04-21T19:28:16.848Z,5.33
2019-04-21T19:31:05.159Z,5.87
2019-04-21T19:33:22.396Z,6.13
2019-04-21T19:35:39.249Z,5.50
2019-04-21T19:38:14.091Z,5.93
2019-04-21T19:40:59.175Z,5.63
2019-04-21T19:43:36.972Z,5.80
2019-04-21T19:46:12.839Z,5.53
2019-04-21T19:48:44.830Z,4.83
2019-04-21T19:51:10.450Z,5.33
2019-04-21T19:53:41.798Z,6.10
2019-04-21T19:56:03.757Z,5.23
2019-04-21T19:58:39.037Z,5.53
2019-04-21T20:01:11.757Z,5.70
2019-04-21T20:03:47.686Z,5.83
2019-04-21T20:06:33.073Z,6.10
2019-04-21T20:09:10.556Z,6.50
2019-04-21T20:11:37.187Z,7.40
2019-04-21T20:14:37.883Z,6.73
2019-04-21T20:16:48.108Z,6.60
2019-04-21T20:19:06.890Z,6.80
2019-04-21T20:21:35.133Z,6.30
2019-04-21T20:24:11.147Z,6.47
2019-04-21T20:26:42.437Z,6.27
2019-04-21T20:29:32.758Z,5.30
2019-04-21T20:32:10.547Z,4.90
2019-04-21T20:34:41.015Z,5.07
2019-04-21T20:37:07.775Z,4.87
2019-04-21T20:39:29.414Z,5.13
2019-04-21T20:42:12.340Z,5.13
2019-04-21T20:44:48.383Z,4.97
2019-04-21T20:47:11.266Z,5.57
2019-04-21T20:49:46.171Z,5.50
2019-04-21T20:52:30.701Z,5.20
2019-04-21T20:54:53.924Z,5.33
2019-04-21T20:57:29.997Z,5.37
2019-04-21T21:00:09.070Z,5.00
2019-04-21T21:02:41.691Z,5.40
2019-04-21T21:05:00.336Z,5.57
2019-04-21T21:07:49.210Z,5.63
2019-04-21T21:10:16.666Z,5.43
2019-04-21T21:12:58.982Z,4.90
2019-04-21T21:15:19.728Z,5.43
2019-04-21T21:18:06.206Z,4.80
2019-04-21T21:20:30.782Z,5.50
2019-04-21T21:23:04.002Z,5.60
2019-04-21T21:25:44.671Z,5.97
2019-04-21T21:28:08.907Z,6.10
2019-04-21T21:30:43.124Z,6.37
2019-04-21T21:33:46.887Z,6.23
2019-04-21T21:35:50.120Z,6.73
2019-04-21T21:38:30.883Z,6.47
2019-04-21T21:40:54.627Z,6.67
2019-04-21T21:43:21.140Z,6.83
2019-04-21T21:45:55.615Z,6.90
2019-04-21T21:48:37.879Z,6.80
2019-04-21T21:51:08.221Z,6.70
2019-04-21T21:53:30.729Z,6.37
2019-04-21T21:56:00.670Z,6.13
2019-04-21T21:58:38.161Z,6.10
2019-04-21T22:01:09.812Z,6.13
2019-04-21T22:03:44.781Z,6.40
2019-04-21T22:06:16.366Z,6.50
2019-04-21T22:08:44.327Z,6.50
2019-04-21T22:11:15.857Z,6.37
2019-04-21T22:13:54.795Z,6.20
2019-04-21T22:16:21.239Z,5.83
2019-04-21T22:19:14.329Z,6.40
2019-04-21T22:21:42.622Z,5.97
2019-04-21T22:24:09.459Z,7.13
2019-04-21T22:26:33.218Z,6.83
2019-04-21T22:29:05.701Z,6.70
2019-04-21T22:31:38.990Z,7.10
2019-04-21T22:34:12.234Z,7.10
2019-04-21T22:36:48.783Z,6.90
2019-04-21T22:39:30.680Z,6.70
2019-04-21T22:41:48.597Z,7.77
2019-04-21T22:44:19.372Z,6.50
2019-04-21T22:47:04.208Z,8.20
2019-04-21T22:49:23.845Z,7.60
2019-04-21T22:51:55.709Z,7.33
2019-04-21T22:54:32.750Z,6.60
2019-04-21T22:57:06.468Z,7.00
2019-04-21T22:59:32.442Z,6.57
2019-04-21T23:02:06.438Z,6.33
2019-04-21T23:04:41.762Z,7.33
2019-04-21T23:07:13.369Z,7.10
2019-04-21T23:09:40.445Z,6.57
2019-04-21T23:12:13.144Z,7.23
2019-04-21T23:14:53.103Z,6.90
2019-04-21T23:17:35.394Z,7.50
2019-04-21T23:20:08.920Z,8.30
2019-04-21T23:22:40.131Z,9.17
2019-04-21T23:25:13.656Z,7.87
2019-04-21T23:27:52.888Z,7.20
2019-04-21T23:30:30.426Z,7.53
2019-04-21T23:32:42.235Z,7.10
2019-04-21T23:35:16.943Z,6.70
2019-04-21T23:37:44.621Z,6.33
2019-04-21T23:40:14.760Z,5.97
2019-04-21T23:42:44.921Z,6.30
2019-04-21T23:45:17.752Z,6.70
2019-04-21T23:47:57.819Z,5.70
2019-04-21T23:50:29.890Z,6.03
2019-04-21T23:52:53.047Z,5.70
2019-04-21T23:55:25.248Z,5.60
2019-04-21T23:58:09.458Z,6.27
